createdAt,value
2022-10-05T00:00:03.812Z,79.80
2022-10-05T00:04:18.090Z,80.18
2022-10-05T00:07:38.964Z,80.12
2022-10-05T00:11:34.362Z,80.03
2022-10-05T00:15:00.948Z,80.05
2022-10-05T00:18:53.105Z,79.67
2022-10-05T00:22:17.247Z,80.12
2022-10-05T00:25:51.194Z,80.41
2022-10-05T00:29:48.205Z,80.70
2022-10-05T00:33:08.852Z,80.65
2022-10-05T00:36:46.482Z,80.50
2022-10-05T00:40:39.246Z,80.56
2022-10-05T00:44:26.740Z,80.36
2022-10-05T00:48:33.325Z,81.00
2022-10-05T00:52:28.898Z,81.22
2022-10-05T00:56:07.635Z,81.54
2022-10-05T00:59:48.950Z,81.61
2022-10-05T01:03:19.056Z,81.70
2022-10-05T01:07:25.142Z,81.61
2022-10-05T01:11:06.095Z,81.97
2022-10-05T01:14:31.753Z,82.18
2022-10-05T01:18:10.075Z,82.40
2022-10-05T01:21:57.316Z,82.58
2022-10-05T01:25:46.605Z,82.56
2022-10-05T01:29:29.750Z,82.75
2022-10-05T01:33:01.721Z,82.98
2022-10-05T01:36:49.905Z,82.86
2022-10-05T01:40:16.143Z,83.07
2022-10-05T01:43:57.013Z,82.52
2022-10-05T01:47:38.697Z,82.56
2022-10-05T01:51:31.116Z,82.72
2022-10-05T01:55:07.805Z,83.06
2022-10-05T01:58:47.004Z,83.23
2022-10-05T02:02:12.366Z,83.25
2022-10-05T02:06:21.906Z,83.38
2022-10-05T02:10:03.158Z,83.01
2022-10-05T02:13:41.449Z,83.40
2022-10-05T02:17:15.258Z,83.63
2022-10-05T02:20:43.390Z,84.05
2022-10-05T02:25:07.139Z,84.37
2022-10-05T02:28:36.184Z,84.56
2022-10-05T02:32:12.738Z,84.35
2022-10-05T02:36:32.782Z,84.43
2022-10-05T02:40:12.712Z,84.58
2022-10-05T02:44:08.421Z,84.54
2022-10-05T02:47:47.316Z,84.90
2022-10-05T02:51:23.095Z,84.91
2022-10-05T02:54:48.429Z,84.96
2022-10-05T02:58:57.378Z,84.47
2022-10-05T03:02:27.869Z,84.42
2022-10-05T03:06:05.983Z,84.62
2022-10-05T03:10:05.119Z,84.70
2022-10-05T03:13:55.215Z,84.99
2022-10-05T03:17:21.135Z,85.24
2022-10-05T03:21:27.086Z,85.09
2022-10-05T03:25:20.718Z,84.60
2022-10-05T03:29:20.341Z,84.54
2022-10-05T03:33:30.170Z,84.69
2022-10-05T03:37:01.167Z,85.24
2022-10-05T03:40:53.834Z,85.31
2022-10-05T03:44:35.333Z,85.24
2022-10-05T03:48:06.698Z,85.17
2022-10-05T03:51:47.511Z,85.19
2022-10-05T03:55:26.378Z,85.35
2022-10-05T03:59:12.687Z,85.84
2022-10-05T04:02:42.876Z,86.01
2022-10-05T04:06:18.697Z,86.11
2022-10-05T04:09:51.588Z,86.11
2022-10-05T04:13:34.178Z,85.99
2022-10-05T04:17:34.341Z,85.87
2022-10-05T04:21:05.135Z,86.32
2022-10-05T04:25:17.159Z,86.21
2022-10-05T04:29:07.116Z,86.44
2022-10-05T04:32:55.124Z,86.60
2022-10-05T04:36:36.758Z,87.12
2022-10-05T04:40:34.114Z,87.03
2022-10-05T04:44:11.077Z,86.93
2022-10-05T04:47:48.365Z,86.74
2022-10-05T04:51:38.551Z,86.72
2022-10-05T04:55:54.018Z,86.87
2022-10-05T04:59:43.260Z,87.15
2022-10-05T05:03:42.657Z,87.55
2022-10-05T05:07:33.698Z,87.53
2022-10-05T05:11:24.308Z,87.39
2022-10-05T05:15:21.911Z,87.17
2022-10-05T05:19:22.004Z,87.25
2022-10-05T05:22:57.866Z,87.50
2022-10-05T05:27:02.202Z,87.67
2022-10-05T05:30:49.710Z,87.92
2022-10-05T05:35:17.587Z,88.51
2022-10-05T05:39:04.502Z,88.63
2022-10-05T05:42:29.497Z,89.00
2022-10-05T05:46:38.886Z,89.24
2022-10-05T05:50:15.941Z,89.65
2022-10-05T05:54:19.355Z,89.84
2022-10-05T05:57:50.083Z,90.22
2022-10-05T06:01:44.498Z,90.49
2022-10-05T06:05:32.390Z,90.89
2022-10-05T06:09:19.595Z,90.81
2022-10-05T06:12:50.502Z,90.93
2022-10-05T06:16:27.163Z,91.07
2022-10-05T06:20:37.686Z,90.93
2022-10-05T06:24:22.780Z,91.23
2022-10-05T06:28:08.434Z,91.23
2022-10-05T06:31:46.989Z,91.09
2022-10-05T06:35:53.464Z,90.99
2022-10-05T06:39:46.289Z,91.10
2022-10-05T06:43:40.801Z,91.48
2022-10-05T06:47:53.845Z,91.61
2022-10-05T06:52:03.368Z,91.61
2022-10-05T06:56:00.158Z,91.72
2022-10-05T06:59:54.741Z,92.20
2022-10-05T07:03:57.949Z,92.33
2022-10-05T07:07:51.795Z,92.44
2022-10-05T07:11:56.422Z,92.04
2022-10-05T07:15:38.165Z,91.79
2022-10-05T07:19:11.427Z,91.82
2022-10-05T07:22:55.366Z,91.88
2022-10-05T07:26:47.194Z,91.98
2022-10-05T07:30:15.095Z,91.60
2022-10-05T07:34:28.445Z,91.32
2022-10-05T07:37:57.349Z,90.94
2022-10-05T07:41:47.960Z,90.85
2022-10-05T07:45:50.776Z,90.64
2022-10-05T07:49:52.209Z,90.37
2022-10-05T07:53:37.392Z,89.80
2022-10-05T07:57:04.934Z,89.31
2022-10-05T08:01:04.052Z,88.92
2022-10-05T08:04:54.811Z,88.91
2022-10-05T08:08:31.425Z,88.61
2022-10-05T08:12:32.754Z,88.48
2022-10-05T08:15:58.133Z,87.70
2022-10-05T08:19:43.503Z,86.84
2022-10-05T08:23:25.334Z,87.01
2022-10-05T08:27:02.291Z,86.90
2022-10-05T08:30:23.894Z,85.44
2022-10-05T08:34:53.602Z,84.88
2022-10-05T08:38:18.732Z,81.53
2022-10-05T08:42:00.080Z,79.49
2022-10-05T08:45:36.825Z,79.11
2022-10-05T08:49:10.630Z,78.82
2022-10-05T08:53:38.043Z,78.25
2022-10-05T08:57:07.691Z,77.65
2022-10-05T09:01:13.050Z,77.06
2022-10-05T09:04:52.891Z,75.27
2022-10-05T09:08:35.504Z,73.82
2022-10-05T09:12:09.538Z,73.81
2022-10-05T09:16:02.729Z,73.10
2022-10-05T09:19:38.919Z,73.77
2022-10-05T09:23:17.331Z,72.12
2022-10-05T09:27:10.148Z,72.58
2022-10-05T09:31:08.241Z,71.41
2022-10-05T09:34:30.681Z,70.71
2022-10-05T09:38:25.064Z,69.66
2022-10-05T09:42:17.383Z,69.14
2022-10-05T09:46:16.346Z,68.74
2022-10-05T09:50:15.440Z,68.41
2022-10-05T09:54:03.022Z,68.10
2022-10-05T09:57:31.739Z,66.42
2022-10-05T10:01:47.873Z,66.35
2022-10-05T10:05:14.829Z,65.64
2022-10-05T10:09:16.998Z,65.54
2022-10-05T10:13:16.118Z,65.42
2022-10-05T10:16:59.539Z,65.34
2022-10-05T10:21:13.867Z,64.73
2022-10-05T10:25:12.247Z,64.47
2022-10-05T10:29:32.400Z,64.31
2022-10-05T10:33:01.938Z,64.09
2022-10-05T10:36:52.250Z,63.81
2022-10-05T10:40:35.116Z,63.62
2022-10-05T10:44:25.205Z,64.63
2022-10-05T10:47:57.022Z,63.32
2022-10-05T10:51:45.248Z,63.47
2022-10-05T10:55:22.005Z,62.70
2022-10-05T10:59:02.004Z,62.62
2022-10-05T11:03:19.792Z,62.28
2022-10-05T11:07:18.668Z,62.28
2022-10-05T11:10:48.801Z,61.99
2022-10-05T11:14:31.911Z,61.64
2022-10-05T11:18:20.187Z,61.07
2022-10-05T11:22:04.566Z,61.21
2022-10-05T11:25:44.505Z,61.06
2022-10-05T11:29:43.784Z,60.79
2022-10-05T11:33:44.162Z,61.19
2022-10-05T11:37:56.874Z,60.40
2022-10-05T11:42:03.499Z,59.50
2022-10-05T11:45:55.558Z,58.47
2022-10-05T11:49:26.608Z,58.51
2022-10-05T11:53:07.039Z,58.41
2022-10-05T11:56:44.925Z,57.10
2022-10-05T12:00:33.789Z,57.18
2022-10-05T12:04:20.008Z,56.49
2022-10-05T12:07:56.718Z,55.83
2022-10-05T12:11:46.505Z,56.07
2022-10-05T12:15:53.032Z,56.86
2022-10-05T12:19:27.276Z,58.10
2022-10-05T12:23:17.887Z,58.16
2022-10-05T12:26:55.245Z,56.12
2022-10-05T12:30:28.827Z,55.79
2022-10-05T12:34:05.575Z,55.80
2022-10-05T12:38:02.220Z,55.91
2022-10-05T12:41:53.472Z,56.40
2022-10-05T12:45:59.339Z,56.83
2022-10-05T12:49:57.837Z,57.30
2022-10-05T12:53:48.693Z,57.96
2022-10-05T12:57:35.570Z,58.26
2022-10-05T13:01:01.546Z,58.49
2022-10-05T13:05:09.980Z,58.51
2022-10-05T13:08:50.868Z,58.68
2022-10-05T13:12:29.962Z,58.28
2022-10-05T13:16:04.883Z,58.39
2022-10-05T13:19:56.536Z,58.22
2022-10-05T13:23:39.362Z,57.61
2022-10-05T13:27:40.560Z,57.56
2022-10-05T13:31:29.771Z,57.91
2022-10-05T13:35:06.732Z,57.97
2022-10-05T13:39:03.662Z,57.61
2022-10-05T13:42:52.806Z,56.07
2022-10-05T13:46:28.705Z,56.08
2022-10-05T13:50:00.376Z,53.09
2022-10-05T13:54:05.147Z,51.91
2022-10-05T13:57:35.316Z,52.16
2022-10-05T14:01:08.940Z,50.66
2022-10-05T14:05:00.903Z,50.63
2022-10-05T14:08:52.047Z,52.59
2022-10-05T14:12:18.799Z,52.43
2022-10-05T14:16:04.950Z,52.06
2022-10-05T14:19:32.586Z,52.86
2022-10-05T14:23:18.477Z,53.05
2022-10-05T14:27:31.040Z,53.01
2022-10-05T14:30:59.356Z,53.34
2022-10-05T14:34:39.425Z,53.68
2022-10-05T14:38:29.955Z,54.46
2022-10-05T14:41:51.119Z,55.01
2022-10-05T14:46:02.899Z,55.72
2022-10-05T14:50:13.350Z,56.43
2022-10-05T14:53:43.537Z,57.06
2022-10-05T14:57:39.792Z,57.57
2022-10-05T15:01:14.859Z,57.58
2022-10-05T15:05:37.461Z,58.09
2022-10-05T15:09:26.731Z,58.58
2022-10-05T15:12:52.879Z,58.98
2022-10-05T15:16:51.102Z,59.39
2022-10-05T15:20:43.155Z,59.50
2022-10-05T15:24:09.441Z,60.29
2022-10-05T15:28:18.962Z,60.76
2022-10-05T15:31:39.956Z,61.42
2022-10-05T15:35:48.992Z,62.10
2022-10-05T15:39:22.205Z,63.04
2022-10-05T15:42:46.715Z,63.92
2022-10-05T15:46:46.929Z,64.38
2022-10-05T15:50:28.480Z,64.69
2022-10-05T15:54:16.742Z,64.95
2022-10-05T15:58:14.894Z,65.04
2022-10-05T16:02:00.860Z,65.39
2022-10-05T16:06:05.227Z,65.45
2022-10-05T16:10:00.955Z,66.15
2022-10-05T16:13:39.871Z,67.39
2022-10-05T16:17:28.756Z,68.07
2022-10-05T16:20:53.524Z,67.93
2022-10-05T16:24:54.954Z,67.88
2022-10-05T16:29:03.688Z,68.07
2022-10-05T16:32:33.996Z,68.36
2022-10-05T16:36:31.394Z,68.46
2022-10-05T16:39:52.029Z,68.80
2022-10-05T16:43:54.546Z,69.76
2022-10-05T16:47:42.779Z,69.93
2022-10-05T16:51:30.698Z,69.84
2022-10-05T16:54:56.736Z,69.76
2022-10-05T16:59:08.873Z,69.75
2022-10-05T17:02:41.592Z,70.03
2022-10-05T17:06:17.604Z,70.42
2022-10-05T17:10:17.985Z,70.79
2022-10-05T17:14:01.434Z,70.86
2022-10-05T17:17:57.171Z,70.79
2022-10-05T17:21:31.537Z,70.77
2022-10-05T17:25:00.954Z,70.57
2022-10-05T17:29:09.777Z,70.57
2022-10-05T17:32:36.224Z,70.50
2022-10-05T17:36:18.122Z,70.47
2022-10-05T17:39:49.105Z,70.41
2022-10-05T17:43:28.035Z,70.72
2022-10-05T17:47:55.852Z,71.39
2022-10-05T17:51:53.872Z,71.72
2022-10-05T17:55:33.018Z,71.64
2022-10-05T17:59:04.340Z,71.33
2022-10-05T18:02:39.933Z,71.18
2022-10-05T18:06:26.031Z,71.17
2022-10-05T18:09:58.757Z,71.18
2022-10-05T18:13:43.960Z,71.41
2022-10-05T18:17:41.594Z,71.93
2022-10-05T18:21:29.893Z,72.47
2022-10-05T18:25:07.107Z,72.90
2022-10-05T18:29:13.791Z,73.06
2022-10-05T18:32:52.464Z,73.11
2022-10-05T18:36:37.544Z,72.98
2022-10-05T18:40:12.442Z,72.87
2022-10-05T18:43:55.142Z,72.89
2022-10-05T18:48:13.188Z,73.02
2022-10-05T18:51:51.660Z,73.57
2022-10-05T18:55:20.940Z,74.27
2022-10-05T18:59:36.358Z,74.93
2022-10-05T19:03:03.188Z,75.39
2022-10-05T19:06:49.254Z,75.24
2022-10-05T19:10:45.996Z,75.00
2022-10-05T19:14:24.683Z,75.01
2022-10-05T19:18:12.346Z,75.63
2022-10-05T19:22:02.029Z,76.28
2022-10-05T19:26:31.303Z,76.27
2022-10-05T19:30:26.786Z,75.96
2022-10-05T19:33:56.713Z,75.76
2022-10-05T19:38:23.880Z,76.12
2022-10-05T19:42:09.630Z,76.52
2022-10-05T19:45:46.925Z,76.63
2022-10-05T19:49:11.746Z,76.43
2022-10-05T19:52:49.900Z,76.47
2022-10-05T19:56:25.800Z,76.56
2022-10-05T19:59:59.470Z,76.78
2022-10-05T20:03:41.116Z,76.65
2022-10-05T20:07:33.799Z,76.44
2022-10-05T20:11:10.691Z,76.08
2022-10-05T20:14:33.479Z,75.99
2022-10-05T20:18:55.503Z,76.37
2022-10-05T20:22:43.399Z,76.56
2022-10-05T20:26:23.495Z,76.41
2022-10-05T20:29:47.488Z,76.07
2022-10-05T20:33:41.477Z,76.08
2022-10-05T20:37:02.103Z,76.38
2022-10-05T20:40:40.068Z,76.68
2022-10-05T20:44:19.906Z,76.50
2022-10-05T20:47:52.430Z,76.06
2022-10-05T20:51:29.235Z,76.27
2022-10-05T20:55:11.324Z,76.62
2022-10-05T20:59:01.472Z,76.72
2022-10-05T21:02:43.534Z,76.72
2022-10-05T21:06:04.085Z,76.58
2022-10-05T21:09:42.549Z,76.40
2022-10-05T21:13:18.566Z,76.20
2022-10-05T21:16:54.413Z,76.36
2022-10-05T21:20:31.105Z,76.57
2022-10-05T21:24:09.945Z,77.21
2022-10-05T21:27:46.516Z,77.61
2022-10-05T21:31:21.978Z,77.53
2022-10-05T21:35:17.134Z,77.68
2022-10-05T21:38:56.552Z,78.14
2022-10-05T21:42:35.744Z,78.34
2022-10-05T21:45:56.686Z,78.55
2022-10-05T21:49:34.045Z,78.69
2022-10-05T21:53:14.639Z,78.51
2022-10-05T21:56:50.278Z,78.36
2022-10-05T22:00:23.643Z,78.71
2022-10-05T22:04:19.176Z,79.13
2022-10-05T22:07:40.139Z,79.74
2022-10-05T22:11:18.291Z,79.62
2022-10-05T22:15:12.869Z,79.58
2022-10-05T22:18:33.566Z,79.79
2022-10-05T22:22:12.042Z,79.97
2022-10-05T22:25:48.121Z,80.34
2022-10-05T22:29:27.334Z,80.16
2022-10-05T22:33:00.477Z,80.03
2022-10-05T22:36:37.987Z,80.34
2022-10-05T22:40:14.393Z,80.48
2022-10-05T22:43:52.062Z,80.52
2022-10-05T22:47:27.858Z,80.52
2022-10-05T22:51:05.135Z,80.43
2022-10-05T22:54:39.405Z,80.69
2022-10-05T22:58:18.085Z,81.25
2022-10-05T23:01:54.862Z,81.17
2022-10-05T23:05:32.451Z,81.51
2022-10-05T23:09:08.459Z,81.35
2022-10-05T23:12:56.101Z,81.23
2022-10-05T23:16:40.947Z,81.04
2022-10-05T23:20:01.776Z,80.88
2022-10-05T23:23:43.738Z,81.07
2022-10-05T23:27:15.171Z,81.31
2022-10-05T23:30:51.861Z,80.89
2022-10-05T23:34:28.817Z,80.78
2022-10-05T23:38:24.899Z,81.08
2022-10-05T23:41:45.919Z,81.11
2022-10-05T23:45:22.543Z,80.98
2022-10-05T23:48:59.415Z,80.76
2022-10-05T23:52:36.946Z,80.69
2022-10-05T23:56:13.340Z,80.69
